Time;durP1;ratioP1;P1;durP2;ratioP2;P2;SDS_P1;SDS_P2;PMS_P1;PMS_P2;Temp;Humidity;BMP_temperature;BMP_pressure;BME280_temperature;BME280_humidity;BME280_pressure;Samples;Min_cycle;Max_cycle;Signal;HPM_P1;HPM_P2
2023/09/02 00:01:10;;;;;;;;;;;;;;;18.81;62.87;96776.94;5077400;28;19931;-64
2023/09/02 00:03:38;;;;;;;;;;;;;;;18.73;63.05;96785.44;5077336;28;20019;-64
2023/09/02 00:06:04;;;;;;;;;;;;;;;18.71;63.72;96782.03;5077263;28;20320;-64
2023/09/02 00:08:31;;;;;;;;;;;;;;;18.66;63.53;96787.63;5077163;28;20392;-64
2023/09/02 00:10:59;;;;;;;;;;;;;;;18.62;63.71;96786.16;5077214;28;19928;-64
2023/09/02 00:13:26;;;;;;;;;;;;;;;18.59;63.95;96788.16;5077220;28;19978;-65
2023/09/02 00:15:53;;;;;;;;;;;;;;;18.47;64.18;96790.66;5077137;28;19924;-64
2023/09/02 00:18:19;;;;;;;;;;;;;;;18.33;64.29;96788.91;5076962;28;19931;-64
2023/09/02 00:20:46;;;;;;;;;;;;;;;18.19;64.48;96780.09;5076712;28;19971;-64
2023/09/02 00:23:13;;;;;;;;;;;;;;;18.08;64.17;96781.69;5077175;28;20329;-64
2023/09/02 00:25:40;;;;;;;;;;;;;;;18.04;65.15;96784.56;5076863;28;20424;-64
2023/09/02 00:28:08;;;;;;;;;;;;;;;17.95;64.50;96779.88;5076782;28;19970;-64
2023/09/02 00:30:35;;;;;;;;;;;;;;;18.01;66.15;96781.25;5076867;28;19928;-64
2023/09/02 00:33:02;;;;;;;;;;;;;;;18.05;65.59;96783.63;5076706;28;20439;-64
2023/09/02 00:35:28;;;;;;;;;;;;;;;18.10;65.68;96783.34;5076786;28;19928;-64
2023/09/02 00:37:55;;;;;;;;;;;;;;;18.16;65.66;96785.59;5076610;28;19924;-64
2023/09/02 00:40:23;;;;;;;;;;;;;;;18.22;65.56;96780.84;5076718;28;19977;-65
2023/09/02 00:42:51;;;;;;;;;;;;;;;18.28;65.27;96783.09;5076572;28;20431;-64
2023/09/02 00:45:21;;;;;;;;;;;;;;;18.33;64.96;96775.69;5076632;28;19964;-64
2023/09/02 00:47:49;;;;;;;;;;;;;;;18.42;66.36;96777.72;5076618;28;20486;-64
2023/09/02 00:50:16;;;;;;;;;;;;;;;18.45;66.05;96781.97;5076354;28;19924;-64
2023/09/02 00:52:43;;;;;;;;;;;;;;;18.47;66.00;96784.50;5076533;28;20007;-64
2023/09/02 00:55:10;;;;;;;;;;;;;;;18.50;65.53;96784.31;5076320;28;19924;-64
2023/09/02 00:57:37;;;;;;;;;;;;;;;18.49;65.24;96777.31;5076243;28;19924;-64
2023/09/02 01:00:04;;;;;;;;;;;;;;;18.46;64.71;96780.19;5076181;28;20309;-64
2023/09/02 01:02:33;;;;;;;;;;;;;;;18.45;64.96;96781.97;5076184;28;19924;-64
2023/09/02 01:05:00;;;;;;;;;;;;;;;18.42;64.57;96790.09;5076379;28;19924;-64
2023/09/02 01:07:27;;;;;;;;;;;;;;;18.30;64.80;96782.03;5076386;28;19947;-64
2023/09/02 01:09:53;;;;;;;;;;;;;;;18.31;64.92;96781.06;5076092;28;19994;-63
2023/09/02 01:12:20;;;;;;;;;;;;;;;18.24;65.16;96787.72;5076078;28;19931;-65
2023/09/02 01:14:47;;;;;;;;;;;;;;;18.17;64.35;96778.50;5076057;28;19932;-64
2023/09/02 01:17:14;;;;;;;;;;;;;;;18.13;64.48;96787.59;5076028;28;20018;-64
2023/09/02 01:19:44;;;;;;;;;;;;;;;18.07;64.89;96788.81;5076055;28;20278;-64
2023/09/02 01:22:27;;;;;;;;;;;;;;;18.02;64.16;96783.81;5075803;28;19931;-64
2023/09/02 01:25:07;;;;;;;;;;;;;;;18.01;64.06;96795.34;5075977;28;19924;-64
2023/09/02 01:27:38;;;;;;;;;;;;;;;17.96;65.00;96784.19;5075823;28;19924;-64
2023/09/02 01:30:07;;;;;;;;;;;;;;;17.83;64.49;96785.94;5075881;28;20317;-64
2023/09/02 01:32:35;;;;;;;;;;;;;;;17.75;63.97;96789.06;5075445;28;19930;-64
2023/09/02 01:35:04;;;;;;;;;;;;;;;17.72;64.32;96781.31;5075936;28;19971;-64
2023/09/02 01:37:32;;;;;;;;;;;;;;;17.64;64.65;96785.28;5075650;28;20019;-64
2023/09/02 01:40:00;;;;;;;;;;;;;;;17.60;64.64;96789.09;5075583;28;19964;-64
2023/09/02 01:42:27;;;;;;;;;;;;;;;17.55;63.02;96776.16;5075572;28;19967;-64
2023/09/02 01:44:55;;;;;;;;;;;;;;;17.66;64.00;96780.78;5075361;28;19931;-64
2023/09/02 01:47:22;;;;;;;;;;;;;;;17.75;65.10;96778.47;5075502;28;19967;-63
2023/09/02 01:49:50;;;;;;;;;;;;;;;17.78;64.54;96773.00;5075255;28;19925;-64
2023/09/02 01:52:17;;;;;;;;;;;;;;;17.74;64.09;96779.44;5075289;28;19931;-64
2023/09/02 01:54:44;;;;;;;;;;;;;;;17.73;64.47;96777.75;5075371;28;20340;-64
2023/09/02 01:57:11;;;;;;;;;;;;;;;17.71;65.31;96774.34;5075231;28;19924;-64
2023/09/02 01:59:37;;;;;;;;;;;;;;;17.69;65.92;96774.44;5075046;28;20409;-64
2023/09/02 02:02:05;;;;;;;;;;;;;;;17.61;65.78;96777.56;5075230;28;19924;-65
2023/09/02 02:04:35;;;;;;;;;;;;;;;17.45;65.25;96774.19;5075151;28;19982;-64
2023/09/02 02:07:04;;;;;;;;;;;;;;;17.42;66.19;96770.78;5074961;28;20382;-63
2023/09/02 02:09:34;;;;;;;;;;;;;;;17.43;66.89;96775.13;5074918;28;19924;-64
2023/09/02 02:12:02;;;;;;;;;;;;;;;17.37;67.02;96786.06;5074882;28;19925;-64
2023/09/02 02:14:31;;;;;;;;;;;;;;;17.37;67.54;96779.94;5074939;28;19924;-64
2023/09/02 02:16:58;;;;;;;;;;;;;;;17.37;67.65;96779.94;5074270;28;19932;-63
2023/09/02 02:19:26;;;;;;;;;;;;;;;17.41;67.72;96777.03;5074675;28;19924;-63
2023/09/02 02:21:53;;;;;;;;;;;;;;;17.43;67.53;96780.41;5074495;28;19924;-64
2023/09/02 02:24:20;;;;;;;;;;;;;;;17.47;67.69;96783.72;5074760;28;19967;-64
2023/09/02 02:26:47;;;;;;;;;;;;;;;17.50;67.67;96772.09;5074794;28;19924;-64
2023/09/02 02:29:13;;;;;;;;;;;;;;;17.57;68.82;96781.34;5074704;28;19924;-65
2023/09/02 02:31:40;;;;;;;;;;;;;;;17.59;68.13;96783.88;5074730;28;19925;-63
2023/09/02 02:34:07;;;;;;;;;;;;;;;17.55;67.08;96778.78;5074543;28;19978;-64
2023/09/02 02:36:35;;;;;;;;;;;;;;;17.62;67.94;96776.63;5074464;28;19994;-64
2023/09/02 02:39:04;;;;;;;;;;;;;;;17.65;67.87;96779.09;5074320;28;19924;-64
2023/09/02 02:41:31;;;;;;;;;;;;;;;17.70;68.30;96777.94;5074397;28;20378;-64
2023/09/02 02:43:59;;;;;;;;;;;;;;;17.72;67.34;96781.31;5074203;28;20407;-64
2023/09/02 02:46:26;;;;;;;;;;;;;;;17.75;66.74;96787.28;5074242;28;19950;-64
2023/09/02 02:48:53;;;;;;;;;;;;;;;17.80;66.69;96782.56;5074223;28;19931;-64
2023/09/02 02:51:20;;;;;;;;;;;;;;;17.88;67.56;96786.50;5074277;28;19924;-64
2023/09/02 02:53:48;;;;;;;;;;;;;;;17.94;67.39;96794.88;5074241;28;19971;-63
2023/09/02 02:56:15;;;;;;;;;;;;;;;17.98;68.08;96792.03;5073989;28;19929;-64
2023/09/02 02:58:42;;;;;;;;;;;;;;;18.00;66.23;96787.50;5074109;28;20294;-64
2023/09/02 03:01:09;;;;;;;;;;;;;;;18.00;67.17;96793.63;5074127;28;19925;-64
2023/09/02 03:03:36;;;;;;;;;;;;;;;17.99;66.88;96788.44;5073988;28;19924;-64
2023/09/02 03:06:03;;;;;;;;;;;;;;;18.02;66.34;96791.75;5073891;28;20024;-64
2023/09/02 03:08:30;;;;;;;;;;;;;;;18.04;66.90;96791.66;5073831;28;19931;-64
2023/09/02 03:10:59;;;;;;;;;;;;;;;18.00;66.92;96798.09;5073969;28;19928;-64
2023/09/02 03:13:25;;;;;;;;;;;;;;;17.98;66.84;96789.41;5073814;28;20419;-65
2023/09/02 03:15:53;;;;;;;;;;;;;;;17.99;66.77;96791.94;5073856;28;19968;-64
2023/09/02 03:18:20;;;;;;;;;;;;;;;18.00;66.67;96795.44;5073816;28;19924;-64
2023/09/02 03:20:46;;;;;;;;;;;;;;;17.96;66.46;96793.91;5073346;28;20409;-64
2023/09/02 03:23:14;;;;;;;;;;;;;;;17.97;66.76;96801.75;5073809;28;19931;-63
2023/09/02 03:25:41;;;;;;;;;;;;;;;18.00;67.99;96806.03;5073715;28;19924;-64
2023/09/02 03:28:09;;;;;;;;;;;;;;;17.99;68.07;96801.66;5073379;28;19925;-63
2023/09/02 03:30:35;;;;;;;;;;;;;;;17.92;67.12;96798.59;5073139;28;19928;-63
2023/09/02 03:33:03;;;;;;;;;;;;;;;17.86;66.69;96804.25;5073522;28;19925;-64
2023/09/02 03:35:29;;;;;;;;;;;;;;;17.84;66.33;96807.00;5073449;28;19968;-64
2023/09/02 03:37:56;;;;;;;;;;;;;;;17.82;66.44;96803.59;5073441;28;20382;-64
2023/09/02 03:40:23;;;;;;;;;;;;;;;17.79;66.86;96809.09;5073426;28;20331;-64
2023/09/02 03:42:49;;;;;;;;;;;;;;;17.77;66.42;96805.69;5073382;28;20019;-64
2023/09/02 03:45:18;;;;;;;;;;;;;;;17.78;66.15;96808.25;5073577;28;19924;-64
2023/09/02 03:47:44;;;;;;;;;;;;;;;17.76;66.41;96811.94;5073524;28;20015;-64
2023/09/02 03:50:11;;;;;;;;;;;;;;;17.69;65.78;96816.75;5073400;28;19928;-64
2023/09/02 03:52:38;;;;;;;;;;;;;;;17.70;65.75;96820.25;5073535;28;20065;-64
2023/09/02 03:55:05;;;;;;;;;;;;;;;17.70;65.74;96814.97;5073492;28;20038;-64
2023/09/02 03:57:32;;;;;;;;;;;;;;;17.72;66.38;96821.84;5073418;28;20004;-64
2023/09/02 03:59:59;;;;;;;;;;;;;;;17.73;66.68;96814.78;5073253;28;20424;-64
2023/09/02 04:02:27;;;;;;;;;;;;;;;17.66;66.05;96816.94;5073308;28;20010;-64
2023/09/02 04:04:54;;;;;;;;;;;;;;;17.69;66.07;96814.09;5073309;28;19946;-64
2023/09/02 04:07:21;;;;;;;;;;;;;;;17.66;67.32;96823.09;5073162;28;19978;-64
2023/09/02 04:09:48;;;;;;;;;;;;;;;17.63;67.43;96822.41;5073215;28;19924;-64
2023/09/02 04:12:14;;;;;;;;;;;;;;;17.64;67.84;96827.63;5073638;28;19924;-64
2023/09/02 04:14:41;;;;;;;;;;;;;;;17.67;68.22;96821.31;5073319;28;20007;-64
2023/09/02 04:17:08;;;;;;;;;;;;;;;17.69;67.79;96822.03;5073078;28;20397;-64
2023/09/02 04:19:36;;;;;;;;;;;;;;;17.73;68.29;96818.25;5073151;28;19924;-64
2023/09/02 04:22:03;;;;;;;;;;;;;;;17.75;68.71;96812.88;5072956;28;19970;-64
2023/09/02 04:24:29;;;;;;;;;;;;;;;17.79;68.86;96817.88;5073080;28;19924;-64
2023/09/02 04:26:57;;;;;;;;;;;;;;;17.85;68.24;96821.09;5073059;28;19970;-64
2023/09/02 04:29:24;;;;;;;;;;;;;;;17.99;67.75;96820.19;5073193;28;20373;-64
2023/09/02 04:31:52;;;;;;;;;;;;;;;18.22;66.84;96823.19;5072949;28;20366;-65
2023/09/02 04:34:19;;;;;;;;;;;;;;;18.56;65.37;96828.94;5073106;28;19925;-64
2023/09/02 04:36:47;;;;;;;;;;;;;;;18.98;65.08;96833.25;5072950;28;19983;-64
2023/09/02 04:39:14;;;;;;;;;;;;;;;19.41;63.72;96833.00;5072869;28;20286;-64
2023/09/02 04:41:41;;;;;;;;;;;;;;;19.76;61.75;96831.50;5076018;28;19987;-64
2023/09/02 04:44:07;;;;;;;;;;;;;;;20.13;60.87;96829.81;5076500;28;19932;-64
2023/09/02 04:46:34;;;;;;;;;;;;;;;20.51;58.99;96830.63;5076531;28;19924;-64
2023/09/02 04:49:01;;;;;;;;;;;;;;;20.98;58.29;96832.53;5076459;28;19924;-64
2023/09/02 04:51:28;;;;;;;;;;;;;;;21.40;57.05;96830.19;5076491;28;19924;-64
2023/09/02 04:53:56;;;;;;;;;;;;;;;21.79;55.67;96831.69;5076417;28;20378;-64
2023/09/02 04:56:24;;;;;;;;;;;;;;;22.15;54.57;96831.53;5076496;28;20023;-64
2023/09/02 04:58:52;;;;;;;;;;;;;;;22.60;54.19;96838.56;5076284;28;19947;-65
2023/09/02 05:01:19;;;;;;;;;;;;;;;23.01;53.42;96843.22;5076157;28;19978;-64
2023/09/02 05:03:47;;;;;;;;;;;;;;;23.31;51.92;96836.25;5076261;28;19934;-65
2023/09/02 05:06:14;;;;;;;;;;;;;;;23.70;51.35;96832.97;5076167;28;19925;-64
2023/09/02 05:08:41;;;;;;;;;;;;;;;24.14;50.71;96831.91;5076128;28;19925;-64
2023/09/02 05:11:09;;;;;;;;;;;;;;;24.53;50.66;96831.94;5076024;28;19924;-64
2023/09/02 05:13:36;;;;;;;;;;;;;;;25.01;49.92;96834.78;5076111;28;19925;-64
2023/09/02 05:16:03;;;;;;;;;;;;;;;25.49;48.94;96837.50;5076092;28;20035;-65
2023/09/02 05:18:30;;;;;;;;;;;;;;;25.86;47.61;96839.38;5076127;28;19935;-65
2023/09/02 05:20:57;;;;;;;;;;;;;;;26.33;46.82;96834.06;5075891;28;19928;-65
2023/09/02 05:23:24;;;;;;;;;;;;;;;26.79;45.95;96839.38;5076044;28;20378;-65
2023/09/02 05:25:54;;;;;;;;;;;;;;;27.20;45.14;96832.69;5076011;28;19928;-65
2023/09/02 05:28:22;;;;;;;;;;;;;;;27.65;44.84;96832.66;5075786;28;19978;-64
2023/09/02 05:30:49;;;;;;;;;;;;;;;28.06;44.19;96845.47;5075920;28;19924;-65
2023/09/02 05:33:16;;;;;;;;;;;;;;;28.38;42.39;96835.81;5076065;28;20015;-65
2023/09/02 05:35:43;;;;;;;;;;;;;;;28.66;42.24;96840.94;5075757;28;19931;-65
2023/09/02 05:38:10;;;;;;;;;;;;;;;28.97;41.27;96836.78;5075652;28;20274;-65
2023/09/02 05:40:39;;;;;;;;;;;;;;;29.34;41.71;96843.47;5075554;28;19924;-65
2023/09/02 05:43:06;;;;;;;;;;;;;;;29.70;39.39;96850.34;5075637;28;20457;-65
2023/09/02 05:45:34;;;;;;;;;;;;;;;30.11;39.85;96846.69;5075524;28;19978;-66
2023/09/02 05:48:02;;;;;;;;;;;;;;;30.44;37.47;96843.00;5075545;28;20441;-65
2023/09/02 05:50:28;;;;;;;;;;;;;;;30.71;39.12;96843.50;5075419;28;20293;-65
2023/09/02 05:52:55;;;;;;;;;;;;;;;30.98;36.94;96849.41;5074603;28;19931;-66
2023/09/02 05:55:22;;;;;;;;;;;;;;;31.15;35.56;96843.84;5075362;28;20451;-66
2023/09/02 05:57:49;;;;;;;;;;;;;;;31.33;35.28;96845.41;5075380;28;19924;-66
2023/09/02 06:00:16;;;;;;;;;;;;;;;31.35;34.07;96848.75;5075230;28;20286;-65
2023/09/02 06:02:44;;;;;;;;;;;;;;;31.48;35.12;96846.28;5075159;28;19930;-66
2023/09/02 06:05:11;;;;;;;;;;;;;;;31.69;34.00;96843.88;5075168;28;19986;-66
2023/09/02 06:07:38;;;;;;;;;;;;;;;31.87;33.10;96846.19;5075058;28;19925;-66
2023/09/02 06:10:05;;;;;;;;;;;;;;;32.05;33.61;96855.84;5075034;28;19924;-66
2023/09/02 06:12:32;;;;;;;;;;;;;;;32.01;32.32;96855.34;5075020;28;20370;-66
2023/09/02 06:14:59;;;;;;;;;;;;;;;31.93;32.10;96853.59;5074947;28;19929;-66
2023/09/02 06:17:30;;;;;;;;;;;;;;;31.62;32.25;96855.44;5075074;28;19924;-66
2023/09/02 06:19:58;;;;;;;;;;;;;;;31.54;29.54;96851.97;5074804;28;19924;-66
2023/09/02 06:22:26;;;;;;;;;;;;;;;31.14;29.31;96852.97;5074868;28;20430;-66
2023/09/02 06:24:54;;;;;;;;;;;;;;;30.46;29.92;96851.72;5074774;28;20019;-65
2023/09/02 06:27:21;;;;;;;;;;;;;;;30.09;31.72;96853.22;5074631;28;19971;-65
2023/09/02 06:29:48;;;;;;;;;;;;;;;30.14;31.78;96849.03;5074612;28;19924;-66
2023/09/02 06:32:15;;;;;;;;;;;;;;;29.94;31.68;96848.59;5074643;28;19958;-65
2023/09/02 06:34:42;;;;;;;;;;;;;;;30.01;31.17;96852.25;5074603;28;19924;-65
2023/09/02 06:37:11;;;;;;;;;;;;;;;29.82;30.88;96852.66;5074425;28;19924;-65
2023/09/02 06:39:41;;;;;;;;;;;;;;;30.02;30.46;96853.09;5074399;28;19967;-66
2023/09/02 06:42:09;;;;;;;;;;;;;;;29.87;31.42;96853.00;5074337;28;19977;-66
2023/09/02 06:44:36;;;;;;;;;;;;;;;30.00;31.32;96852.44;5074360;28;20018;-65
2023/09/02 06:47:04;;;;;;;;;;;;;;;30.17;30.34;96855.09;5074305;28;19928;-65
2023/09/02 06:49:33;;;;;;;;;;;;;;;29.85;31.03;96863.09;5074135;28;19925;-65
2023/09/02 06:52:00;;;;;;;;;;;;;;;30.07;30.43;96853.41;5074232;28;19931;-65
2023/09/02 06:54:29;;;;;;;;;;;;;;;30.27;31.11;96855.72;5074093;28;19928;-66
2023/09/02 06:56:56;;;;;;;;;;;;;;;30.72;31.78;96853.25;5074051;28;19928;-65
2023/09/02 06:59:25;;;;;;;;;;;;;;;30.71;30.01;96857.00;5074003;28;19933;-66
2023/09/02 07:01:52;;;;;;;;;;;;;;;30.59;29.91;96856.56;5073840;28;19930;-66
2023/09/02 07:04:19;;;;;;;;;;;;;;;30.52;31.19;96855.59;5073771;28;19924;-66
2023/09/02 07:06:46;;;;;;;;;;;;;;;30.66;30.84;96863.94;5073899;28;19925;-66
2023/09/02 07:09:13;;;;;;;;;;;;;;;30.97;30.56;96861.19;5073900;28;20393;-66
2023/09/02 07:11:41;;;;;;;;;;;;;;;30.93;29.38;96867.16;5073749;28;20004;-66
2023/09/02 07:14:08;;;;;;;;;;;;;;;30.56;29.65;96861.47;5074031;28;19930;-65
2023/09/02 07:16:35;;;;;;;;;;;;;;;30.22;29.94;96853.53;5074046;28;19932;-65
2023/09/02 07:19:03;;;;;;;;;;;;;;;30.37;30.62;96858.22;5073646;28;20395;-66
2023/09/02 07:21:30;;;;;;;;;;;;;;;30.16;30.48;96862.38;5073472;28;19924;-66
2023/09/02 07:24:00;;;;;;;;;;;;;;;30.03;30.62;96860.16;5073646;28;20408;-66
2023/09/02 07:26:29;;;;;;;;;;;;;;;30.34;31.60;96864.78;5073649;28;19932;-66
2023/09/02 07:28:57;;;;;;;;;;;;;;;30.68;30.52;96865.44;5073677;28;19932;-66
2023/09/02 07:31:25;;;;;;;;;;;;;;;30.84;30.34;96864.50;5073775;28;20378;-65
2023/09/02 07:33:52;;;;;;;;;;;;;;;30.96;30.00;96867.63;5073604;28;20007;-66
2023/09/02 07:36:18;;;;;;;;;;;;;;;31.22;29.46;96863.72;5073439;28;19983;-65
2023/09/02 07:38:46;;;;;;;;;;;;;;;31.40;28.86;96862.56;5073545;28;20366;-66
2023/09/02 07:41:13;;;;;;;;;;;;;;;31.36;28.08;96863.97;5073436;28;20266;-66
2023/09/02 07:43:40;;;;;;;;;;;;;;;30.68;28.75;96867.28;5073533;28;19931;-65
2023/09/02 07:46:08;;;;;;;;;;;;;;;30.72;28.67;96855.13;5073507;28;19931;-66
2023/09/02 07:48:35;;;;;;;;;;;;;;;30.83;28.03;96860.16;5073494;28;19971;-66
2023/09/02 07:51:01;;;;;;;;;;;;;;;30.63;28.74;96867.81;5073397;28;19929;-66
2023/09/02 07:53:28;;;;;;;;;;;;;;;30.75;28.29;96861.00;5073370;28;19925;-65
2023/09/02 07:55:55;;;;;;;;;;;;;;;30.72;28.25;96855.13;5073473;28;19924;-66
2023/09/02 07:58:22;;;;;;;;;;;;;;;30.44;29.82;96866.41;5073401;28;19971;-66
2023/09/02 08:00:49;;;;;;;;;;;;;;;30.68;28.82;96864.59;5073361;28;19977;-66
2023/09/02 08:03:17;;;;;;;;;;;;;;;30.92;28.96;96863.63;5073259;28;19978;-66
2023/09/02 08:05:44;;;;;;;;;;;;;;;30.97;30.24;96866.59;5073373;28;20007;-65
2023/09/02 08:08:11;;;;;;;;;;;;;;;30.64;27.91;96870.34;5073280;28;20019;-65
2023/09/02 08:10:39;;;;;;;;;;;;;;;30.70;28.29;96866.09;5073264;28;19928;-66
2023/09/02 08:13:05;;;;;;;;;;;;;;;30.84;29.83;96859.13;5073129;28;19932;-66
2023/09/02 08:15:32;;;;;;;;;;;;;;;30.80;30.96;96865.91;5074836;28;19977;-66
2023/09/02 08:17:59;;;;;;;;;;;;;;;30.70;28.76;96866.09;5077173;28;19924;-66
2023/09/02 08:20:29;;;;;;;;;;;;;;;30.79;28.70;96864.19;5076848;28;19928;-66
2023/09/02 08:22:56;;;;;;;;;;;;;;;31.10;28.36;96857.91;5077101;28;19924;-66
2023/09/02 08:25:23;;;;;;;;;;;;;;;31.08;28.92;96862.66;5076913;28;19924;-66
2023/09/02 08:27:50;;;;;;;;;;;;;;;31.15;30.12;96866.28;5077043;28;19925;-66
2023/09/02 08:30:17;;;;;;;;;;;;;;;30.97;28.74;96872.00;5077123;28;20007;-65
2023/09/02 08:32:44;;;;;;;;;;;;;;;30.83;30.29;96862.00;5077168;28;19924;-66
2023/09/02 08:35:12;;;;;;;;;;;;;;;30.80;28.80;96865.91;5076820;28;19924;-66
2023/09/02 08:37:40;;;;;;;;;;;;;;;30.32;29.14;96868.69;5076745;28;19929;-65
2023/09/02 08:40:08;;;;;;;;;;;;;;;30.13;29.08;96862.69;5076716;28;19995;-66
2023/09/02 08:42:36;;;;;;;;;;;;;;;30.13;30.01;96859.97;5076685;28;19928;-66
2023/09/02 08:45:06;;;;;;;;;;;;;;;30.39;29.96;96857.00;5076669;28;19987;-66
2023/09/02 08:47:34;;;;;;;;;;;;;;;30.63;30.58;96857.88;5076610;28;19924;-66
2023/09/02 08:50:02;;;;;;;;;;;;;;;31.14;29.89;96851.13;5076507;28;19971;-66
2023/09/02 08:52:29;;;;;;;;;;;;;;;31.39;28.46;96861.72;5076495;28;19932;-66
2023/09/02 08:54:59;;;;;;;;;;;;;;;31.55;28.65;96862.59;5076605;28;19925;-66
2023/09/02 08:57:25;;;;;;;;;;;;;;;31.25;27.07;96862.50;5076421;28;20460;-66
2023/09/02 08:59:53;;;;;;;;;;;;;;;30.97;28.04;96861.19;5076569;28;19928;-66
2023/09/02 09:02:20;;;;;;;;;;;;;;;31.37;27.71;96852.97;5076352;28;19924;-66
2023/09/02 09:04:50;;;;;;;;;;;;;;;31.16;26.55;96859.03;5076430;28;19924;-66
2023/09/02 09:07:17;;;;;;;;;;;;;;;30.63;26.35;96859.72;5076831;28;19924;-66
2023/09/02 09:09:46;;;;;;;;;;;;;;;30.28;27.72;96852.03;5076641;28;19924;-66
2023/09/02 09:12:15;;;;;;;;;;;;;;;30.32;27.70;96852.50;5076296;28;19929;-66
2023/09/02 09:14:45;;;;;;;;;;;;;;;30.21;28.21;96851.03;5076043;28;19979;-65
2023/09/02 09:17:13;;;;;;;;;;;;;;;30.13;29.09;96852.72;5076057;28;19932;-65
2023/09/02 09:19:40;;;;;;;;;;;;;;;30.44;28.19;96848.38;5076051;28;20393;-65
2023/09/02 09:22:07;;;;;;;;;;;;;;;30.50;28.38;96852.22;5075753;28;19925;-66
2023/09/02 09:24:34;;;;;;;;;;;;;;;30.67;27.59;96844.03;5076045;28;19924;-66
2023/09/02 09:27:05;;;;;;;;;;;;;;;30.86;27.74;96840.03;5074530;28;20375;-66
2023/09/02 09:29:39;;;;;;;;;;;;;;;30.65;26.93;96838.81;5075823;28;20137;-66
2023/09/02 09:32:10;;;;;;;;;;;;;;;30.60;26.41;96839.34;5075800;28;19971;-66
2023/09/02 09:34:38;;;;;;;;;;;;;;;30.76;26.20;96829.50;5075781;28;19925;-66
2023/09/02 09:37:05;;;;;;;;;;;;;;;30.85;27.96;96822.19;5075632;28;20373;-66
2023/09/02 09:39:38;;;;;;;;;;;;;;;30.89;27.02;96829.72;5075603;28;19925;-66
2023/09/02 09:42:06;;;;;;;;;;;;;;;30.78;27.01;96827.44;5075512;28;19928;-66
2023/09/02 09:44:33;;;;;;;;;;;;;;;30.86;25.78;96829.25;5075621;28;19998;-66
2023/09/02 09:47:08;;;;;;;;;;;;;;;30.85;26.93;96833.78;5075562;28;19960;-66
2023/09/02 09:49:35;;;;;;;;;;;;;;;30.84;26.49;96837.53;5075522;28;20023;-66
2023/09/02 09:52:09;;;;;;;;;;;;;;;30.84;26.00;96828.56;5075475;28;20396;-66
2023/09/02 09:54:37;;;;;;;;;;;;;;;31.12;25.86;96826.16;5075375;28;19924;-66
2023/09/02 09:57:04;;;;;;;;;;;;;;;31.46;26.23;96815.06;5075373;28;19984;-66
2023/09/02 09:59:33;;;;;;;;;;;;;;;31.70;25.64;96816.66;5075266;28;19924;-67
2023/09/02 10:02:00;;;;;;;;;;;;;;;31.75;26.29;96818.78;5075159;28;19924;-66
2023/09/02 10:04:28;;;;;;;;;;;;;;;31.40;26.22;96824.75;5075363;28;19971;-66
2023/09/02 10:06:58;;;;;;;;;;;;;;;31.20;26.06;96817.13;5075023;28;20007;-66
2023/09/02 10:09:24;;;;;;;;;;;;;;;31.26;27.14;96819.09;5075135;28;19929;-66
2023/09/02 10:11:51;;;;;;;;;;;;;;;31.45;26.14;96818.78;5074908;28;19932;-66
2023/09/02 10:14:19;;;;;;;;;;;;;;;31.64;26.04;96809.28;5074806;28;19925;-66
2023/09/02 10:16:47;;;;;;;;;;;;;;;31.93;28.86;96810.31;5074874;28;19978;-66
2023/09/02 10:19:14;;;;;;;;;;;;;;;32.12;25.89;96811.59;5074799;28;20011;-66
2023/09/02 10:21:43;;;;;;;;;;;;;;;31.97;25.48;96819.75;5074511;28;19954;-66
2023/09/02 10:24:11;;;;;;;;;;;;;;;31.75;25.21;96816.06;5074847;28;20011;-66
2023/09/02 10:26:45;;;;;;;;;;;;;;;31.37;25.72;96817.00;5074892;28;19986;-66
2023/09/02 10:29:12;;;;;;;;;;;;;;;31.02;25.55;96812.91;5074660;28;20363;-66
2023/09/02 10:31:40;;;;;;;;;;;;;;;30.67;25.45;96817.03;5074650;28;19931;-66
2023/09/02 10:34:14;;;;;;;;;;;;;;;30.62;25.71;96814.88;5074500;28;19924;-66
2023/09/02 10:36:45;;;;;;;;;;;;;;;30.50;26.65;96807.22;5074544;28;20370;-66
2023/09/02 10:39:18;;;;;;;;;;;;;;;30.64;25.16;96815.56;5074117;28;20388;-66
2023/09/02 10:41:47;;;;;;;;;;;;;;;31.05;26.13;96810.84;5074307;28;19967;-66
2023/09/02 10:44:14;;;;;;;;;;;;;;;31.20;26.28;96816.28;5074562;28;19928;-66
2023/09/02 10:46:41;;;;;;;;;;;;;;;31.40;25.09;96816.66;5074433;28;19924;-67
2023/09/02 10:49:08;;;;;;;;;;;;;;;31.30;24.95;96814.16;5074285;28;19970;-66
2023/09/02 10:51:35;;;;;;;;;;;;;;;30.95;25.22;96814.66;5074142;28;19924;-67
2023/09/02 10:54:04;;;;;;;;;;;;;;;30.67;26.57;96809.78;5074208;28;19924;-66
2023/09/02 10:56:31;;;;;;;;;;;;;;;30.55;27.54;96816.63;5074321;28;20288;-66
2023/09/02 10:58:58;;;;;;;;;;;;;;;30.33;26.76;96811.00;5074146;28;20382;-66
2023/09/02 11:01:25;;;;;;;;;;;;;;;30.28;28.02;96819.66;5074027;28;20006;-66
2023/09/02 11:03:53;;;;;;;;;;;;;;;30.07;28.09;96814.84;5073949;28;19986;-66
2023/09/02 11:06:20;;;;;;;;;;;;;;;29.98;28.02;96809.47;5073923;28;19925;-66
2023/09/02 11:08:48;;;;;;;;;;;;;;;29.68;28.06;96809.28;5073860;28;20012;-66
2023/09/02 11:11:17;;;;;;;;;;;;;;;29.57;27.09;96815.03;5073758;28;19970;-66
2023/09/02 11:14:02;;;;;;;;;;;;;;;29.61;28.29;96808.25;5073841;28;19959;-66
2023/09/02 11:16:29;;;;;;;;;;;;;;;29.71;29.52;96808.09;5073771;28;19928;-66
2023/09/02 11:19:00;;;;;;;;;;;;;;;29.66;28.84;96808.59;5073000;28;20279;-66
2023/09/02 11:21:40;;;;;;;;;;;;;;;29.83;29.24;96803.16;5073389;28;19977;-66
2023/09/02 11:24:17;;;;;;;;;;;;;;;30.12;28.91;96789.03;5073682;28;19924;-66
2023/09/02 11:26:55;;;;;;;;;;;;;;;30.43;29.62;96787.34;5073664;28;19928;-66
2023/09/02 11:29:23;;;;;;;;;;;;;;;30.54;27.64;96794.19;5073525;28;20302;-66
2023/09/02 11:31:59;;;;;;;;;;;;;;;29.96;29.11;96794.50;5073451;28;19924;-66
2023/09/02 11:34:27;;;;;;;;;;;;;;;29.41;29.42;96792.47;5073421;28;19924;-66
2023/09/02 11:36:54;;;;;;;;;;;;;;;29.21;30.16;96797.38;5073472;28;19967;-66
2023/09/02 11:39:25;;;;;;;;;;;;;;;29.08;30.39;96787.97;5073533;28;19925;-66
2023/09/02 11:42:07;;;;;;;;;;;;;;;28.97;30.78;96788.31;5073446;28;19924;-66
2023/09/02 11:44:35;;;;;;;;;;;;;;;28.91;30.80;96781.75;5073514;28;19928;-66
2023/09/02 11:47:02;;;;;;;;;;;;;;;28.89;31.32;96786.44;5073403;28;19924;-66
2023/09/02 11:49:29;;;;;;;;;;;;;;;28.84;30.90;96781.56;5072679;28;19972;-66
2023/09/02 11:51:56;;;;;;;;;;;;;;;28.83;31.05;96777.19;5073184;28;19978;-66
2023/09/02 11:54:24;;;;;;;;;;;;;;;28.86;29.57;96784.09;5073261;28;20009;-66
2023/09/02 11:56:58;;;;;;;;;;;;;;;28.82;29.04;96774.69;5073345;28;20378;-66
2023/09/02 11:59:27;;;;;;;;;;;;;;;28.93;31.20;96776.19;5073284;28;19928;-66
2023/09/02 12:02:09;;;;;;;;;;;;;;;28.99;30.35;96775.56;5073224;28;19924;-66
2023/09/02 12:04:37;;;;;;;;;;;;;;;28.99;29.43;96776.38;5073300;28;19932;-66
2023/09/02 12:07:04;;;;;;;;;;;;;;;29.00;31.80;96777.22;5073145;28;20293;-66
2023/09/02 12:09:30;;;;;;;;;;;;;;;29.00;30.73;96761.94;5073240;28;19931;-66
2023/09/02 12:11:58;;;;;;;;;;;;;;;29.03;31.66;96759.88;5073245;28;19924;-66
2023/09/02 12:14:27;;;;;;;;;;;;;;;29.09;31.45;96759.22;5073109;28;19951;-66
2023/09/02 12:16:54;;;;;;;;;;;;;;;29.14;30.80;96765.75;5073267;28;19932;-66
2023/09/02 12:19:21;;;;;;;;;;;;;;;29.19;31.89;96757.16;5073214;28;19924;-66
2023/09/02 12:21:49;;;;;;;;;;;;;;;29.01;31.99;96760.06;5072806;28;19924;-66
2023/09/02 12:24:16;;;;;;;;;;;;;;;29.00;31.92;96761.06;5072996;28;19925;-66
2023/09/02 12:26:46;;;;;;;;;;;;;;;28.97;30.82;96758.72;5073053;28;19929;-66
2023/09/02 12:29:15;;;;;;;;;;;;;;;28.97;31.22;96751.50;5072993;28;19925;-66
2023/09/02 12:31:44;;;;;;;;;;;;;;;29.21;31.42;96735.47;5073024;28;20268;-66
2023/09/02 12:34:17;;;;;;;;;;;;;;;29.61;28.76;96738.22;5072931;28;20022;-66
2023/09/02 12:36:45;;;;;;;;;;;;;;;29.92;29.43;96734.72;5072826;28;19967;-66
2023/09/02 12:39:22;;;;;;;;;;;;;;;30.25;28.06;96734.53;5072983;28;20437;-66
2023/09/02 12:41:49;;;;;;;;;;;;;;;30.49;28.16;96729.16;5072822;28;20378;-66
2023/09/02 12:44:18;;;;;;;;;;;;;;;30.69;27.21;96737.56;5072919;28;19924;-66
2023/09/02 12:46:47;;;;;;;;;;;;;;;30.67;27.48;96728.00;5072893;28;19978;-66
2023/09/02 12:49:15;;;;;;;;;;;;;;;30.68;26.91;96733.22;5072840;28;20003;-66
2023/09/02 12:51:42;;;;;;;;;;;;;;;30.43;27.92;96729.88;5072782;28;19925;-66